sensor_id;sensor_type;location;lat;lon;timestamp;temperature;humidity
84432;DHT22;74658;51.736;7.038;2023-12-04T00:02:12;0.2;
84432;DHT22;74658;51.736;7.038;2023-12-04T00:07:15;0.2;
84432;DHT22;74658;51.736;7.038;2023-12-04T00:12:14;0.2;
84432;DHT22;74658;51.736;7.038;2023-12-04T00:17:15;0.2;
84432;DHT22;74658;51.736;7.038;2023-12-04T00:22:15;0.2;
84432;DHT22;74658;51.736;7.038;2023-12-04T00:27:16;0.2;
84432;DHT22;74658;51.736;7.038;2023-12-04T00:32:16;0.2;
84432;DHT22;74658;51.736;7.038;2023-12-04T00:37:17;0.2;
84432;DHT22;74658;51.736;7.038;2023-12-04T00:42:18;0.2;
84432;DHT22;74658;51.736;7.038;2023-12-04T00:47:18;0.1;
84432;DHT22;74658;51.736;7.038;2023-12-04T00:52:19;0.2;
84432;DHT22;74658;51.736;7.038;2023-12-04T00:57:19;0.2;
84432;DHT22;74658;51.736;7.038;2023-12-04T01:02:20;0.2;
84432;DHT22;74658;51.736;7.038;2023-12-04T01:07:21;0.2;
84432;DHT22;74658;51.736;7.038;2023-12-04T01:12:21;0.2;
84432;DHT22;74658;51.736;7.038;2023-12-04T01:17:22;0.2;
84432;DHT22;74658;51.736;7.038;2023-12-04T01:22:23;0.2;
84432;DHT22;74658;51.736;7.038;2023-12-04T01:27:23;0.2;
84432;DHT22;74658;51.736;7.038;2023-12-04T01:32:24;0.2;
84432;DHT22;74658;51.736;7.038;2023-12-04T01:37:24;0.2;
84432;DHT22;74658;51.736;7.038;2023-12-04T01:42:25;0.2;
84432;DHT22;74658;51.736;7.038;2023-12-04T01:47:25;0.1;
84432;DHT22;74658;51.736;7.038;2023-12-04T01:52:26;0.1;
84432;DHT22;74658;51.736;7.038;2023-12-04T01:57:27;0.1;
84432;DHT22;74658;51.736;7.038;2023-12-04T02:02:28;0;
84432;DHT22;74658;51.736;7.038;2023-12-04T02:07:28;-0.1;
84432;DHT22;74658;51.736;7.038;2023-12-04T02:12:29;-0.1;
84432;DHT22;74658;51.736;7.038;2023-12-04T02:17:29;-0.1;
84432;DHT22;74658;51.736;7.038;2023-12-04T02:22:30;-0.2;
84432;DHT22;74658;51.736;7.038;2023-12-04T02:27:36;-0.2;
84432;DHT22;74658;51.736;7.038;2023-12-04T02:32:34;-0.1;
84432;DHT22;74658;51.736;7.038;2023-12-04T02:37:32;-0.1;
84432;DHT22;74658;51.736;7.038;2023-12-04T02:42:32;-0.1;
84432;DHT22;74658;51.736;7.038;2023-12-04T02:47:33;0;
84432;DHT22;74658;51.736;7.038;2023-12-04T02:52:33;0;
84432;DHT22;74658;51.736;7.038;2023-12-04T02:57:34;-0.1;
84432;DHT22;74658;51.736;7.038;2023-12-04T03:02:34;0;
84432;DHT22;74658;51.736;7.038;2023-12-04T03:07:35;0;
84432;DHT22;74658;51.736;7.038;2023-12-04T03:12:36;0;
84432;DHT22;74658;51.736;7.038;2023-12-04T03:17:36;0;
84432;DHT22;74658;51.736;7.038;2023-12-04T03:22:37;0;
84432;DHT22;74658;51.736;7.038;2023-12-04T03:27:37;0;
84432;DHT22;74658;51.736;7.038;2023-12-04T03:32:38;0;
84432;DHT22;74658;51.736;7.038;2023-12-04T03:37:39;0;
84432;DHT22;74658;51.736;7.038;2023-12-04T03:42:39;0.1;
84432;DHT22;74658;51.736;7.038;2023-12-04T03:47:40;0.1;
84432;DHT22;74658;51.736;7.038;2023-12-04T03:52:40;0.1;
84432;DHT22;74658;51.736;7.038;2023-12-04T03:57:41;0.1;
84432;DHT22;74658;51.736;7.038;2023-12-04T04:02:43;0.2;
84432;DHT22;74658;51.736;7.038;2023-12-04T04:07:42;0.1;
84432;DHT22;74658;51.736;7.038;2023-12-04T04:12:43;0.2;
84432;DHT22;74658;51.736;7.038;2023-12-04T04:17:43;0.2;
84432;DHT22;74658;51.736;7.038;2023-12-04T04:22:44;0.2;
84432;DHT22;74658;51.736;7.038;2023-12-04T04:27:45;0.2;
84432;DHT22;74658;51.736;7.038;2023-12-04T04:32:45;0.2;
84432;DHT22;74658;51.736;7.038;2023-12-04T04:37:46;0.2;
84432;DHT22;74658;51.736;7.038;2023-12-04T04:42:47;0.2;
84432;DHT22;74658;51.736;7.038;2023-12-04T04:47:50;0.2;
84432;DHT22;74658;51.736;7.038;2023-12-04T04:52:49;0.1;
84432;DHT22;74658;51.736;7.038;2023-12-04T04:57:49;0.2;
84432;DHT22;74658;51.736;7.038;2023-12-04T05:02:50;0.3;
84432;DHT22;74658;51.736;7.038;2023-12-04T05:07:51;0.3;
84432;DHT22;74658;51.736;7.038;2023-12-04T05:12:51;0.3;
84432;DHT22;74658;51.736;7.038;2023-12-04T05:17:52;0.2;
84432;DHT22;74658;51.736;7.038;2023-12-04T05:22:52;0.3;
84432;DHT22;74658;51.736;7.038;2023-12-04T05:27:53;0.3;
84432;DHT22;74658;51.736;7.038;2023-12-04T05:32:53;0.3;
84432;DHT22;74658;51.736;7.038;2023-12-04T05:37:54;0.3;
84432;DHT22;74658;51.736;7.038;2023-12-04T05:42:55;0.2;
84432;DHT22;74658;51.736;7.038;2023-12-04T05:47:55;0.2;
84432;DHT22;74658;51.736;7.038;2023-12-04T05:52:56;0.3;
84432;DHT22;74658;51.736;7.038;2023-12-04T05:57:56;0.4;
84432;DHT22;74658;51.736;7.038;2023-12-04T06:02:57;0.5;
84432;DHT22;74658;51.736;7.038;2023-12-04T06:07:58;0.5;
84432;DHT22;74658;51.736;7.038;2023-12-04T06:12:58;0.6;
84432;DHT22;74658;51.736;7.038;2023-12-04T06:17:59;0.6;
84432;DHT22;74658;51.736;7.038;2023-12-04T06:23:00;0.6;
84432;DHT22;74658;51.736;7.038;2023-12-04T06:28:01;0.6;
84432;DHT22;74658;51.736;7.038;2023-12-04T06:33:01;0.6;
84432;DHT22;74658;51.736;7.038;2023-12-04T06:38:05;0.8;
84432;DHT22;74658;51.736;7.038;2023-12-04T06:43:03;0.8;
84432;DHT22;74658;51.736;7.038;2023-12-04T06:48:03;0.9;
84432;DHT22;74658;51.736;7.038;2023-12-04T06:53:03;0.9;
84432;DHT22;74658;51.736;7.038;2023-12-04T06:58:04;0.8;
84432;DHT22;74658;51.736;7.038;2023-12-04T07:03:04;0.9;
84432;DHT22;74658;51.736;7.038;2023-12-04T07:08:05;0.8;
84432;DHT22;74658;51.736;7.038;2023-12-04T07:13:06;0.9;
84432;DHT22;74658;51.736;7.038;2023-12-04T07:18:06;0.9;
84432;DHT22;74658;51.736;7.038;2023-12-04T07:23:07;1;
84432;DHT22;74658;51.736;7.038;2023-12-04T07:28:07;1;
84432;DHT22;74658;51.736;7.038;2023-12-04T07:33:08;0.9;
84432;DHT22;74658;51.736;7.038;2023-12-04T07:38:09;1.1;
84432;DHT22;74658;51.736;7.038;2023-12-04T07:43:09;1.1;
84432;DHT22;74658;51.736;7.038;2023-12-04T07:48:10;1.1;
84432;DHT22;74658;51.736;7.038;2023-12-04T07:53:11;1.1;
84432;DHT22;74658;51.736;7.038;2023-12-04T07:58:11;1.1;
84432;DHT22;74658;51.736;7.038;2023-12-04T08:03:12;1.1;
84432;DHT22;74658;51.736;7.038;2023-12-04T08:08:12;1.2;
84432;DHT22;74658;51.736;7.038;2023-12-04T08:13:13;1.3;
84432;DHT22;74658;51.736;7.038;2023-12-04T08:18:14;1.3;
84432;DHT22;74658;51.736;7.038;2023-12-04T08:23:14;1.2;
84432;DHT22;74658;51.736;7.038;2023-12-04T08:28:15;1.2;
84432;DHT22;74658;51.736;7.038;2023-12-04T08:33:15;1.3;
84432;DHT22;74658;51.736;7.038;2023-12-04T08:38:16;1.3;
84432;DHT22;74658;51.736;7.038;2023-12-04T08:43:17;1.4;
84432;DHT22;74658;51.736;7.038;2023-12-04T08:48:17;1.4;
84432;DHT22;74658;51.736;7.038;2023-12-04T08:53:18;1.4;
84432;DHT22;74658;51.736;7.038;2023-12-04T08:58:19;1.4;
84432;DHT22;74658;51.736;7.038;2023-12-04T09:03:19;1.6;
84432;DHT22;74658;51.736;7.038;2023-12-04T09:08:22;1.6;
84432;DHT22;74658;51.736;7.038;2023-12-04T09:13:21;1.7;
84432;DHT22;74658;51.736;7.038;2023-12-04T09:18:21;1.7;
84432;DHT22;74658;51.736;7.038;2023-12-04T09:23:22;1.8;
84432;DHT22;74658;51.736;7.038;2023-12-04T09:28:22;1.8;
84432;DHT22;74658;51.736;7.038;2023-12-04T09:33:23;1.9;
84432;DHT22;74658;51.736;7.038;2023-12-04T09:38:24;1.8;
84432;DHT22;74658;51.736;7.038;2023-12-04T09:43:25;1.8;
84432;DHT22;74658;51.736;7.038;2023-12-04T09:48:26;1.9;
84432;DHT22;74658;51.736;7.038;2023-12-04T09:53:26;1.9;
84432;DHT22;74658;51.736;7.038;2023-12-04T09:58:28;1.8;
84432;DHT22;74658;51.736;7.038;2023-12-04T10:03:30;1.9;
84432;DHT22;74658;51.736;7.038;2023-12-04T10:08:28;1.9;
84432;DHT22;74658;51.736;7.038;2023-12-04T10:13:32;1.9;
84432;DHT22;74658;51.736;7.038;2023-12-04T10:18:31;2;
84432;DHT22;74658;51.736;7.038;2023-12-04T10:23:40;2;
84432;DHT22;74658;51.736;7.038;2023-12-04T10:28:32;2.1;
84432;DHT22;74658;51.736;7.038;2023-12-04T10:33:33;2.1;
84432;DHT22;74658;51.736;7.038;2023-12-04T10:38:33;2.1;
84432;DHT22;74658;51.736;7.038;2023-12-04T10:43:34;2.1;
84432;DHT22;74658;51.736;7.038;2023-12-04T10:48:34;2.2;
84432;DHT22;74658;51.736;7.038;2023-12-04T10:53:35;2.3;
84432;DHT22;74658;51.736;7.038;2023-12-04T10:58:38;2.4;
84432;DHT22;74658;51.736;7.038;2023-12-04T11:03:42;2.4;
84432;DHT22;74658;51.736;7.038;2023-12-04T11:08:38;2.5;
84432;DHT22;74658;51.736;7.038;2023-12-04T11:13:40;2.5;
84432;DHT22;74658;51.736;7.038;2023-12-04T11:18:40;2.7;
84432;DHT22;74658;51.736;7.038;2023-12-04T11:23:39;2.7;
84432;DHT22;74658;51.736;7.038;2023-12-04T11:28:39;2.8;
84432;DHT22;74658;51.736;7.038;2023-12-04T11:33:40;2.9;
84432;DHT22;74658;51.736;7.038;2023-12-04T11:38:44;2.9;
84432;DHT22;74658;51.736;7.038;2023-12-04T11:43:42;3;
84432;DHT22;74658;51.736;7.038;2023-12-04T11:48:42;3;
84432;DHT22;74658;51.736;7.038;2023-12-04T11:53:44;3;
84432;DHT22;74658;51.736;7.038;2023-12-04T11:58:43;3.1;
84432;DHT22;74658;51.736;7.038;2023-12-04T12:03:43;3.1;
84432;DHT22;74658;51.736;7.038;2023-12-04T12:08:44;3.2;
84432;DHT22;74658;51.736;7.038;2023-12-04T12:13:45;3.2;
84432;DHT22;74658;51.736;7.038;2023-12-04T12:18:46;3.2;
84432;DHT22;74658;51.736;7.038;2023-12-04T12:23:46;3.2;
84432;DHT22;74658;51.736;7.038;2023-12-04T12:28:46;3.2;
84432;DHT22;74658;51.736;7.038;2023-12-04T12:33:47;3.3;
84432;DHT22;74658;51.736;7.038;2023-12-04T12:38:48;3.2;
84432;DHT22;74658;51.736;7.038;2023-12-04T12:43:51;3.2;
84432;DHT22;74658;51.736;7.038;2023-12-04T12:48:49;3.1;
84432;DHT22;74658;51.736;7.038;2023-12-04T12:53:49;2.9;
84432;DHT22;74658;51.736;7.038;2023-12-04T12:58:50;2.9;
84432;DHT22;74658;51.736;7.038;2023-12-04T13:03:51;2.7;
84432;DHT22;74658;51.736;7.038;2023-12-04T13:08:51;2.6;
84432;DHT22;74658;51.736;7.038;2023-12-04T13:13:52;2.7;
84432;DHT22;74658;51.736;7.038;2023-12-04T13:18:52;2.5;
84432;DHT22;74658;51.736;7.038;2023-12-04T13:23:53;2.6;
84432;DHT22;74658;51.736;7.038;2023-12-04T13:28:53;2.6;
84432;DHT22;74658;51.736;7.038;2023-12-04T13:33:54;2.6;
84432;DHT22;74658;51.736;7.038;2023-12-04T13:38:55;2.5;
84432;DHT22;74658;51.736;7.038;2023-12-04T13:43:55;2.5;
84432;DHT22;74658;51.736;7.038;2023-12-04T13:48:56;2.5;
84432;DHT22;74658;51.736;7.038;2023-12-04T13:53:56;2.4;
84432;DHT22;74658;51.736;7.038;2023-12-04T13:58:57;2.3;
84432;DHT22;74658;51.736;7.038;2023-12-04T14:04:00;2.1;
84432;DHT22;74658;51.736;7.038;2023-12-04T14:08:59;2.1;
84432;DHT22;74658;51.736;7.038;2023-12-04T14:14:00;2;
84432;DHT22;74658;51.736;7.038;2023-12-04T14:19:01;2;
84432;DHT22;74658;51.736;7.038;2023-12-04T14:24:01;1.9;
84432;DHT22;74658;51.736;7.038;2023-12-04T14:29:02;1.9;
84432;DHT22;74658;51.736;7.038;2023-12-04T14:34:02;1.8;
84432;DHT22;74658;51.736;7.038;2023-12-04T14:39:04;1.7;
84432;DHT22;74658;51.736;7.038;2023-12-04T14:44:04;1.6;
84432;DHT22;74658;51.736;7.038;2023-12-04T14:49:04;1.6;
84432;DHT22;74658;51.736;7.038;2023-12-04T14:54:05;1.7;
84432;DHT22;74658;51.736;7.038;2023-12-04T14:59:05;1.7;
84432;DHT22;74658;51.736;7.038;2023-12-04T15:04:06;1.8;
84432;DHT22;74658;51.736;7.038;2023-12-04T15:09:07;1.8;
84432;DHT22;74658;51.736;7.038;2023-12-04T15:14:07;1.8;
84432;DHT22;74658;51.736;7.038;2023-12-04T15:19:08;1.8;
84432;DHT22;74658;51.736;7.038;2023-12-04T15:24:08;1.8;
84432;DHT22;74658;51.736;7.038;2023-12-04T15:29:09;1.8;
84432;DHT22;74658;51.736;7.038;2023-12-04T15:34:10;1.8;
84432;DHT22;74658;51.736;7.038;2023-12-04T15:39:10;1.8;
84432;DHT22;74658;51.736;7.038;2023-12-04T15:44:11;1.8;
84432;DHT22;74658;51.736;7.038;2023-12-04T15:49:12;1.8;
84432;DHT22;74658;51.736;7.038;2023-12-04T15:54:12;1.8;
84432;DHT22;74658;51.736;7.038;2023-12-04T15:59:13;1.8;
84432;DHT22;74658;51.736;7.038;2023-12-04T16:04:13;1.9;
84432;DHT22;74658;51.736;7.038;2023-12-04T16:09:14;2;
84432;DHT22;74658;51.736;7.038;2023-12-04T16:14:15;2.1;
84432;DHT22;74658;51.736;7.038;2023-12-04T16:19:15;2.2;
84432;DHT22;74658;51.736;7.038;2023-12-04T16:24:16;2.2;
84432;DHT22;74658;51.736;7.038;2023-12-04T16:29:16;2.3;
84432;DHT22;74658;51.736;7.038;2023-12-04T16:34:17;2.3;
84432;DHT22;74658;51.736;7.038;2023-12-04T16:39:18;2.2;
84432;DHT22;74658;51.736;7.038;2023-12-04T16:44:18;2.2;
84432;DHT22;74658;51.736;7.038;2023-12-04T16:49:19;2.2;
84432;DHT22;74658;51.736;7.038;2023-12-04T16:54:19;2.2;
84432;DHT22;74658;51.736;7.038;2023-12-04T16:59:21;2.2;
84432;DHT22;74658;51.736;7.038;2023-12-04T17:04:20;2.2;
84432;DHT22;74658;51.736;7.038;2023-12-04T17:09:21;2.2;
84432;DHT22;74658;51.736;7.038;2023-12-04T17:14:22;2.1;
84432;DHT22;74658;51.736;7.038;2023-12-04T17:19:23;2;
84432;DHT22;74658;51.736;7.038;2023-12-04T17:24:23;2;
84432;DHT22;74658;51.736;7.038;2023-12-04T17:29:24;1.9;
84432;DHT22;74658;51.736;7.038;2023-12-04T17:34:24;1.8;
84432;DHT22;74658;51.736;7.038;2023-12-04T17:39:25;1.8;
84432;DHT22;74658;51.736;7.038;2023-12-04T17:44:28;1.8;
84432;DHT22;74658;51.736;7.038;2023-12-04T17:49:27;1.8;
84432;DHT22;74658;51.736;7.038;2023-12-04T17:54:27;1.7;
84432;DHT22;74658;51.736;7.038;2023-12-04T17:59:28;1.6;
84432;DHT22;74658;51.736;7.038;2023-12-04T18:04:29;1.6;
84432;DHT22;74658;51.736;7.038;2023-12-04T18:09:29;1.5;
84432;DHT22;74658;51.736;7.038;2023-12-04T18:14:30;1.5;
84432;DHT22;74658;51.736;7.038;2023-12-04T18:19:30;1.6;
84432;DHT22;74658;51.736;7.038;2023-12-04T18:24:31;1.5;
84432;DHT22;74658;51.736;7.038;2023-12-04T18:29:32;1.5;
84432;DHT22;74658;51.736;7.038;2023-12-04T18:34:33;1.5;
84432;DHT22;74658;51.736;7.038;2023-12-04T18:39:35;1.5;
84432;DHT22;74658;51.736;7.038;2023-12-04T18:44:34;1.5;
84432;DHT22;74658;51.736;7.038;2023-12-04T18:49:36;1.4;
84432;DHT22;74658;51.736;7.038;2023-12-04T18:54:36;1.5;
84432;DHT22;74658;51.736;7.038;2023-12-04T18:59:37;1.5;
84432;DHT22;74658;51.736;7.038;2023-12-04T19:04:37;1.5;
84432;DHT22;74658;51.736;7.038;2023-12-04T19:09:38;1.5;
84432;DHT22;74658;51.736;7.038;2023-12-04T19:14:39;1.5;
84432;DHT22;74658;51.736;7.038;2023-12-04T19:19:40;1.5;
84432;DHT22;74658;51.736;7.038;2023-12-04T19:24:40;1.6;
84432;DHT22;74658;51.736;7.038;2023-12-04T19:29:41;1.6;
84432;DHT22;74658;51.736;7.038;2023-12-04T19:34:42;1.6;
84432;DHT22;74658;51.736;7.038;2023-12-04T19:39:42;1.6;
84432;DHT22;74658;51.736;7.038;2023-12-04T19:44:43;1.7;
84432;DHT22;74658;51.736;7.038;2023-12-04T19:49:44;1.7;
84432;DHT22;74658;51.736;7.038;2023-12-04T19:54:44;1.8;
84432;DHT22;74658;51.736;7.038;2023-12-04T19:59:45;1.8;
84432;DHT22;74658;51.736;7.038;2023-12-04T20:04:45;1.9;
84432;DHT22;74658;51.736;7.038;2023-12-04T20:09:46;1.9;
84432;DHT22;74658;51.736;7.038;2023-12-04T20:14:47;1.9;
84432;DHT22;74658;51.736;7.038;2023-12-04T20:19:47;1.9;
84432;DHT22;74658;51.736;7.038;2023-12-04T20:24:48;1.9;
84432;DHT22;74658;51.736;7.038;2023-12-04T20:29:48;2;
84432;DHT22;74658;51.736;7.038;2023-12-04T20:34:49;2;
84432;DHT22;74658;51.736;7.038;2023-12-04T20:39:50;2;
84432;DHT22;74658;51.736;7.038;2023-12-04T20:44:50;2;
84432;DHT22;74658;51.736;7.038;2023-12-04T20:49:51;2;
84432;DHT22;74658;51.736;7.038;2023-12-04T20:54:52;2.1;
84432;DHT22;74658;51.736;7.038;2023-12-04T20:59:52;2.1;
84432;DHT22;74658;51.736;7.038;2023-12-04T21:04:53;2.1;
84432;DHT22;74658;51.736;7.038;2023-12-04T21:09:53;2.1;
84432;DHT22;74658;51.736;7.038;2023-12-04T21:14:54;2.1;
84432;DHT22;74658;51.736;7.038;2023-12-04T21:19:55;2.1;
84432;DHT22;74658;51.736;7.038;2023-12-04T21:24:55;2.1;
84432;DHT22;74658;51.736;7.038;2023-12-04T21:29:56;2.2;
84432;DHT22;74658;51.736;7.038;2023-12-04T21:34:57;2.2;
84432;DHT22;74658;51.736;7.038;2023-12-04T21:39:57;2.2;
84432;DHT22;74658;51.736;7.038;2023-12-04T21:44:58;2.2;
84432;DHT22;74658;51.736;7.038;2023-12-04T21:49:58;2.2;
84432;DHT22;74658;51.736;7.038;2023-12-04T21:54:59;2.2;
84432;DHT22;74658;51.736;7.038;2023-12-04T21:59:59;2.2;
84432;DHT22;74658;51.736;7.038;2023-12-04T22:05:00;2.2;
84432;DHT22;74658;51.736;7.038;2023-12-04T22:10:01;2.2;
84432;DHT22;74658;51.736;7.038;2023-12-04T22:15:02;2.2;
84432;DHT22;74658;51.736;7.038;2023-12-04T22:20:02;2.2;
84432;DHT22;74658;51.736;7.038;2023-12-04T22:25:03;2.2;
84432;DHT22;74658;51.736;7.038;2023-12-04T22:30:04;2.2;
84432;DHT22;74658;51.736;7.038;2023-12-04T22:30:05;2.2;
84432;DHT22;74658;51.736;7.038;2023-12-04T22:35:04;2.2;
84432;DHT22;74658;51.736;7.038;2023-12-04T22:40:05;2.2;
84432;DHT22;74658;51.736;7.038;2023-12-04T22:45:05;2.2;
84432;DHT22;74658;51.736;7.038;2023-12-04T22:50:07;2.3;
84432;DHT22;74658;51.736;7.038;2023-12-04T22:55:07;2.2;
84432;DHT22;74658;51.736;7.038;2023-12-04T23:00:07;2.2;
84432;DHT22;74658;51.736;7.038;2023-12-04T23:05:07;2.2;
84432;DHT22;74658;51.736;7.038;2023-12-04T23:10:08;2.2;
84432;DHT22;74658;51.736;7.038;2023-12-04T23:15:09;2.3;
84432;DHT22;74658;51.736;7.038;2023-12-04T23:20:10;2.2;
84432;DHT22;74658;51.736;7.038;2023-12-04T23:25:11;2.2;
84432;DHT22;74658;51.736;7.038;2023-12-04T23:30:10;2.2;
84432;DHT22;74658;51.736;7.038;2023-12-04T23:35:11;2.2;
84432;DHT22;74658;51.736;7.038;2023-12-04T23:40:11;2.2;
84432;DHT22;74658;51.736;7.038;2023-12-04T23:47:32;2.3;
84432;DHT22;74658;51.736;7.038;2023-12-04T23:52:33;2.3;
84432;DHT22;74658;51.736;7.038;2023-12-04T23:57:33;2.3;
